Escuela de Aviación
Dean International

Program Pricing

Bienvenidos a Dean International

Durante mas de 20 años, Dean International ha educado a más de 7,000 pilotos en el mundo. Ofreciendo entrenamiento de gran calidad, un personal de servicio amable, una amplia variedad de aviones y mejorando constantemente, nos hemos convertido en una de las escuelas de aviación más grandes y prestigiosas aprobada por la FAA. Situada en el Aeropuerto Ejecutivo Kendall-Tamiami ubicado en Miami, Florida, EE.UU., nuestra escuela de aviación ofrece un ambiente ideal para aprender a volar durante todo el año y esta bien equipado para prestar servicios a los alumnos de la comunidad general de aviación. Visitenos o contáctenos hoy para obtener mas información, o simplemente lea más sobre nuestros programas, si usted es un estudiante internacional interesado en unirse a nuestra escuela.
Tiempo Local
TAF FOR KTMB (Issued: Sun, July 24th 2016 6:30 PM UTC)
TAF KTMB 241728Z 2418/2518 10010KT P6SM SHRA VCTS SCT025CB BKN150
      FM242300 14006KT P6SM VCSH FEW025 BKN060
      FM250100 VRB03KT P6SM SCT250
      FM251400 12008KT P6SM SCT035
     
METAR FOR KTMB (Issued: Sun, July 24th 2016 7:53 PM UTC):
KTMB 241953Z 32007KT 10SM CLR 25/23 A3006 RMK AO2 RAE40 SLP179 P0001 T02500228

This weather information is provided by the National Weather Service.
It is automatically refreshed every three minutes.
TAF FOR KHST (Issued: Sun, July 24th 2016 5:42 PM UTC)
TAF TAF
      AMD KHST 241739Z 2417/2522 09006KT 9999 FEW050 OVC150 QNH3000INS
      TEMPO 2418/2422 18012KT 8000 -TSRA BKN030CB
      BECMG 2423/2424 12006KT 9999 FEW050 SCT100 QNH2997INS
      BECMG 2511/2512 12012KT 9999 FEW050 QNH3002INS
      TEMPO 2518/2522 12015G20KT 8000 -TSRA BKN030CB TX33/2419Z TN22/2509Z
      AMD 241739
     
METAR FOR KHST (Issued: Sun, July 24th 2016 7:58 PM UTC):
KHST 241958Z AUTO 34006KT 10SM SCT120 BKN140 28/22 A3005 RMK AO2 SLP179 T02830224

This weather information is provided by the National Weather Service.
It is automatically refreshed every three minutes.
TAF FOR KOPF (Issued: Sun, July 24th 2016 6:30 PM UTC)
TAF KOPF 241728Z 2418/2518 10008KT P6SM SHRA VCTS SCT025CB BKN040
      FM242200 15006KT P6SM VCSH FEW025 BKN060
      FM250000 VRB03KT P6SM SCT250
      FM251400 13008KT P6SM SCT035
     
METAR FOR KOPF (Issued: Sun, July 24th 2016 7:53 PM UTC):
KOPF 241953Z 07004KT 10SM SCT110 28/21 A3007 RMK AO2 LTG DSNT W SLP184 T02830211

This weather information is provided by the National Weather Service.
It is automatically refreshed every three minutes.
TAF FOR KMIA (Issued: Sun, July 24th 2016 6:33 PM UTC)
TAF KMIA 241728Z 2418/2518 12010KT P6SM SHRA VCTS SCT025CB BKN100
      FM242200 13006KT P6SM VCSH FEW025 BKN060
      FM250000 VRB03KT P6SM SCT250
      FM251400 12008KT P6SM SCT035
     
METAR FOR KMIA (Issued: Sun, July 24th 2016 7:53 PM UTC):
KMIA 241953Z 05006KT 10SM FEW030 SCT075 BKN120 OVC200 29/21 A3007 RMK AO2 SLP181 T02890206

This weather information is provided by the National Weather Service.
It is automatically refreshed every three minutes.
Diseño por Ariel Llizo
© Dean International Inc. 2012